Mount Tremper, NY (12457)

11:38 PM EST on March 05, 2015 (GMT -0500)
Onteora High School | Change Station
CLOSE
Current Station
Personal Weather Station
Location: Boiceville, NY
Elevation: 659 ft
Nearby Weather Stations

Elev 659 ft 42.01 °N, 74.27 °W | Updated 7 seconds ago

Partly Cloudy
Partly Cloudy
12.4 °F
Feels Like 1 °F
N
8.0
Wind Variable Wind from NNE
Gusts 21.0 mph

Today
High -- | Low -- °F
--% Chance of Precip.
Yesterday
High -- | Low -- °F
Precip. -- in
6:26 AM 5:51 PM
Full, 100% visible
Pressure 30.37 in
Visibility 10.0 miles
Clouds Clear
Windchill 1 °F
Dew Point 1 °F
Humidity 59%
Rainfall in
Snow Depth Not available.
UV 0.0 out of 12
Pollen .40 out of 12
Air Quality Not available.
Flu Activity Not available.
METAR KPOU 060353Z AUTO 32009KT 10SM CLR M07/M17 A3037 RMK AO2 SLP283 T10721172

More Conditions Fewer Conditions

Pressure 30.37 in
Visibility 10.0 miles
Clouds Clear
Windchill 1 °F
Dew Point 1 °F
Humidity 59%
Rainfall in
Snow Depth Not available.
UV 0.0 out of 12
Pollen .40 out of 12
Air Quality Not available.
Flu Activity Not available.
METAR KPOU 060353Z AUTO 32009KT 10SM CLR M07/M17 A3037 RMK AO2 SLP283 T10721172

More Conditions Fewer Conditions

10-Day Weather Forecast

Almanac

Astronomy

Mar. 05, 2015 Rise Set
Actual Time
Civil Twilight
Nautical Twilight
Astronomical Twilight
Moon
Length of Visible Light
Length of Day
Tomorrow will be .
, % of the Moon is Illuminated

Today's Extremes

State Highs State Lows

Community

WunderPhotos

Upload Photos

1,803,178 photos uploaded!

WunderBlogs® & News

Nearby

Air Quality

  Air Quality AQ Index Pollutant
Not available.

Snow Depth

Station Depth Elevation

Earthquake Activity

City Distance Mag. Time & Date
Minimum magnitude displayed is 2.5.

Coastal Water Temperatures

Place Temperature

Nearby Weather Stations